EW9605 Lakewood Ranch FL US current weather conditions

sailwx.info

Wind from 009 at 1 knots gusting 2

Air temperature 9.4° C
Dewpoint 7.6° C

Last reported at 2018-Dec-12 02:09 UTC.
Time now 2018-Dec-12 03:14 UTC

Location: N 27°24' W 082°23'.
View on Google Maps.

See reports from other nearby stations

  
Tides and Currents Weather Stations Pressure Air Temp Water Temp Dewpoint Dewpoint Depression Visibility Wind Speed Wind Dir Waves Ship Positions
date/time (UTC)wind fromknots sea level pressurealtimeterstation pressurevisibilityair tempwater tempwave heightnotes
2018-Dec-12 02:09 009 1 gusting 2 9.4
2018-Dec-12 02:04 008 1 gusting 2 9.4
2018-Dec-12 01:59 353 2 gusting 2 9.4
2018-Dec-12 01:54 005 1 gusting 3 9.4
2018-Dec-12 01:49 354 1 gusting 2 9.4
2018-Dec-12 01:44 008 0 gusting 0 9.4
2018-Dec-12 01:39 004 9.4
2018-Dec-12 01:34 003 9.4
2018-Dec-12 01:29 358 10.0
2018-Dec-12 01:24 10.0
2018-Dec-12 01:19 10.0
2018-Dec-12 01:14 356 0 gusting 1 10.0
2018-Dec-12 01:09 005 0 gusting 0 10.0
2018-Dec-12 01:04 007 10.0
2018-Dec-12 00:59 002 0 gusting 0 10.0
2018-Dec-12 00:54 003 1 gusting 1 10.0
2018-Dec-12 00:49 002 1 gusting 2 10.0
2018-Dec-12 00:44 004 2 gusting 3 10.0
2018-Dec-12 00:39 002 1 gusting 1 10.0
2018-Dec-12 00:34 001 0 gusting 1 10.0
2018-Dec-12 00:29 001 10.0
2018-Dec-12 00:24 10.0
2018-Dec-12 00:19 10.0
2018-Dec-12 00:14 10.0
2018-Dec-12 00:09 10.6
2018-Dec-12 00:04 10.6
2018-Dec-11 23:59 10.6
2018-Dec-11 23:54 001 10.6
2018-Dec-11 23:49 001 10.6
2018-Dec-11 23:44 10.6
2018-Dec-11 23:39 11.1
2018-Dec-11 23:34 001 11.1
2018-Dec-11 23:29 11.1
2018-Dec-11 23:24 001 11.1
2018-Dec-11 23:19 11.1
2018-Dec-11 23:14 001 11.7
2018-Dec-11 23:09 003 11.7
2018-Dec-11 23:04 007 11.7
2018-Dec-11 22:59 007 0 gusting 1 11.7
2018-Dec-11 22:54 010 12.2
2018-Dec-11 22:49 011 12.2
2018-Dec-11 22:40 334 12.2
2018-Dec-11 22:35 328 0 gusting 0 12.8
2018-Dec-11 22:30 334 12.8
2018-Dec-11 22:25 327 0 gusting 1 12.8
2018-Dec-11 22:20 324 0 gusting 0 13.3
2018-Dec-11 22:15 327 0 gusting 1 13.3
2018-Dec-11 22:10 354 0 gusting 1 13.9
2018-Dec-11 22:04 356 0 gusting 0 13.9
2018-Dec-11 21:59 005 3 gusting 4 13.9
2018-Dec-11 21:54 338 0 gusting 2 13.9
2018-Dec-11 21:49 328 1 gusting 2 14.4
2018-Dec-11 21:44 350 0 gusting 1 14.4
2018-Dec-11 21:39 321 1 gusting 2 14.4
2018-Dec-11 21:34 342 3 gusting 3 14.4
2018-Dec-11 21:29 331 1 gusting 2 14.4
2018-Dec-11 21:24 348 0 gusting 1 14.4
2018-Dec-11 21:19 004 0 gusting 1 14.4
2018-Dec-11 21:14 349 3 gusting 4 14.4
2018-Dec-11 21:09 329 3 gusting 4 15.0
2018-Dec-11 21:04 284 3 gusting 4 15.0
2018-Dec-11 20:59 297 1 gusting 1 15.0
2018-Dec-11 20:54 338 0 gusting 1 15.0
2018-Dec-11 20:49 001 2 gusting 3 15.0
2018-Dec-11 20:44 324 0 gusting 1 15.0
2018-Dec-11 20:39 349 0 gusting 1 15.0
2018-Dec-11 20:34 347 1 gusting 2 15.0
2018-Dec-11 20:30 303 3 gusting 3 15.0
2018-Dec-11 20:25 338 3 gusting 4 15.0
2018-Dec-11 20:20 354 1 gusting 2 15.0
2018-Dec-11 20:15 346 1 gusting 1 15.0
2018-Dec-11 20:10 011 1 gusting 3 15.0
2018-Dec-11 20:05 005 4 gusting 5 15.0
2018-Dec-11 20:00 350 4 gusting 6 15.0
2018-Dec-11 19:50 297 4 gusting 8 14.4
2018-Dec-11 19:45 067 0 gusting 1 14.4
2018-Dec-11 19:40 004 6 gusting 6 14.4
2018-Dec-11 19:35 359 6 gusting 7 14.4
2018-Dec-11 19:30 358 4 gusting 5 14.4
2018-Dec-11 19:25 356 2 gusting 3 14.4
2018-Dec-11 19:20 14.4
2018-Dec-11 19:15 319 2 gusting 4 14.4
2018-Dec-11 19:09 357 6 gusting 7 14.4
2018-Dec-11 19:04 003 1 gusting 2 14.4
2018-Dec-11 18:59 343 5 gusting 7 14.4
2018-Dec-11 18:54 342 3 gusting 5 14.4
2018-Dec-11 18:49 005 1 gusting 2 14.4
2018-Dec-11 18:44 349 7 gusting 9 14.4
2018-Dec-11 18:39 350 3 gusting 4 14.4
2018-Dec-11 18:34 356 3 gusting 4 14.4
2018-Dec-11 18:29 310 5 gusting 6 14.4
2018-Dec-11 18:24 008 4 gusting 5 14.4
2018-Dec-11 18:20 320 5 gusting 5 14.4
2018-Dec-11 18:15 007 7 gusting 10 14.4
2018-Dec-11 18:10 002 5 gusting 5 14.4
2018-Dec-11 18:05 014 3 gusting 6 14.4
2018-Dec-11 18:00 319 4 gusting 6 14.4
2018-Dec-11 17:55 007 1 gusting 3 14.4
2018-Dec-11 17:50 354 4 gusting 7 14.4
2018-Dec-11 17:45 343 2 gusting 4 14.4
2018-Dec-11 17:40 006 7 gusting 8 14.4
2018-Dec-11 17:35 333 4 gusting 5 14.4
2018-Dec-11 17:30 336 5 gusting 8 14.4
2018-Dec-11 17:20 326 2 gusting 3 14.4
2018-Dec-11 17:15 324 7 gusting 10 14.4
2018-Dec-11 17:10 313 3 gusting 4 14.4
2018-Dec-11 17:05 329 3 gusting 5 14.4
2018-Dec-11 17:00 338 0 gusting 1 14.4
2018-Dec-11 16:55 324 1 gusting 2 14.4
2018-Dec-11 16:50 328 4 gusting 6 14.4
2018-Dec-11 16:45 315 5 gusting 7 14.4
2018-Dec-11 16:40 334 0 gusting 1 14.4
2018-Dec-11 16:35 003 1 gusting 3 14.4
2018-Dec-11 16:30 352 1 gusting 2 14.4
2018-Dec-11 16:25 326 3 gusting 4 14.4
2018-Dec-11 16:17 037 0 gusting 1 14.4
2018-Dec-11 16:10 325 0 gusting 1 14.4
2018-Dec-11 16:05 343 0 gusting 1 13.9
2018-Dec-11 16:00 002 1 gusting 1 13.9
2018-Dec-11 15:55 003 1 gusting 4 13.3
2018-Dec-11 15:50 001 5 gusting 7 13.3
2018-Dec-11 15:45 056 3 gusting 3 13.3
2018-Dec-11 15:40 357 2 gusting 3 12.8
2018-Dec-11 15:35 352 2 gusting 3 12.8
2018-Dec-11 15:30 055 3 gusting 4 12.8
2018-Dec-11 15:25 004 1 gusting 3 12.8
2018-Dec-11 15:20 030 2 gusting 3 12.8
2018-Dec-11 15:15 009 4 gusting 5 12.8
2018-Dec-11 15:10 356 4 gusting 6 12.8
2018-Dec-11 15:05 046 4 gusting 5 12.8
2018-Dec-11 15:00 048 2 gusting 3 12.8
2018-Dec-11 14:55 340 2 gusting 3 12.2
2018-Dec-11 14:50 12.2
2018-Dec-11 14:45 358 3 gusting 4 12.2
2018-Dec-11 14:40 010 1 gusting 2 12.2
2018-Dec-11 14:35 031 2 gusting 4 11.7
2018-Dec-11 14:30 358 2 gusting 4 11.7
2018-Dec-11 14:25 052 0 gusting 2 11.7
2018-Dec-11 14:20 058 1 gusting 2 11.1
2018-Dec-11 14:15 027 0 gusting 1 11.1
2018-Dec-11 14:10 076 4 gusting 6 11.1
2018-Dec-11 14:04 054 1 gusting 1 11.1
2018-Dec-11 13:59 001 2 gusting 4 10.6
2018-Dec-11 13:54 068 3 gusting 4 10.6
2018-Dec-11 13:49 053 10.6
2018-Dec-11 13:44 060 2 gusting 3 10.0
2018-Dec-11 13:39 062 0 gusting 1 10.0
2018-Dec-11 13:34 047 0 gusting 1 10.0
2018-Dec-11 13:29 088 1 gusting 2 10.0
2018-Dec-11 13:24 067 0 gusting 1 10.0
2018-Dec-11 13:19 090 1 gusting 1 10.0
2018-Dec-11 13:14 053 1 gusting 2 9.4
2018-Dec-11 13:09 071 0 gusting 1 9.4
2018-Dec-11 13:04 055 1 gusting 2 9.4
2018-Dec-11 12:59 069 1 gusting 1 8.9
2018-Dec-11 12:54 070 0 gusting 1 8.9
2018-Dec-11 12:49 073 1 gusting 2 8.9
2018-Dec-11 12:44 065 1 gusting 1 8.9
2018-Dec-11 12:39 061 0 gusting 1 8.9
2018-Dec-11 12:34 073 0 gusting 1 8.9
2018-Dec-11 12:29 071 1 gusting 2 9.4
2018-Dec-11 12:24 060 1 gusting 1 9.4
2018-Dec-11 12:19 074 1 gusting 2 9.4
2018-Dec-11 12:14 056 1 gusting 1 9.4
2018-Dec-11 12:09 061 1 gusting 2 9.4
2018-Dec-11 12:04 055 9.4
2018-Dec-11 11:58 060 9.4
2018-Dec-11 11:53 005 9.4
2018-Dec-11 11:48 053 0 gusting 1 9.4
2018-Dec-11 11:43 015 9.4
2018-Dec-11 11:38 9.4
2018-Dec-11 11:33 001 1 gusting 1 10.0
2018-Dec-11 11:28 049 0 gusting 1 10.0
2018-Dec-11 11:23 018 0 gusting 1 10.0
2018-Dec-11 11:18 061 0 gusting 3 10.0
2018-Dec-11 11:13 004 1 gusting 3 10.0
2018-Dec-11 11:08 055 1 gusting 2 10.0
2018-Dec-11 11:03 052 2 gusting 2 10.0
2018-Dec-11 10:58 052 0 gusting 1 10.0
2018-Dec-11 10:53 052 1 gusting 2 10.0
2018-Dec-11 10:48 004 3 gusting 4 10.0
2018-Dec-11 10:43 055 1 gusting 1 10.0
2018-Dec-11 10:38 066 0 gusting 1 10.0
2018-Dec-11 10:33 070 2 gusting 3 10.0
2018-Dec-11 10:28 050 1 gusting 2 10.0
2018-Dec-11 10:23 084 1 gusting 2 10.0
2018-Dec-11 10:18 063 2 gusting 2 10.0
2018-Dec-11 10:13 050 2 gusting 2 10.0
2018-Dec-11 10:08 046 10.0
2018-Dec-11 10:03 358 1 gusting 2 10.0
2018-Dec-11 09:58 10.0
2018-Dec-11 09:53 008 10.0
2018-Dec-11 09:49 014 10.0
2018-Dec-11 09:44 005 2 gusting 3 10.0
2018-Dec-11 09:39 039 0 gusting 1 10.0
2018-Dec-11 09:34 060 10.0
2018-Dec-11 09:29 10.0
2018-Dec-11 09:24 075 0 gusting 1 10.0
2018-Dec-11 09:19 075 0 gusting 0 10.0
2018-Dec-11 09:14 062 0 gusting 1 10.0
2018-Dec-11 09:09 075 0 gusting 1 10.0
2018-Dec-11 09:04 057 0 gusting 1 10.0
2018-Dec-11 08:59 055 10.0
2018-Dec-11 08:54 049 0 gusting 0 10.0
2018-Dec-11 08:49 053 1 gusting 1 10.0
2018-Dec-11 08:44 056 1 gusting 2 10.0
2018-Dec-11 08:39 016 9.4
2018-Dec-11 08:34 9.4
2018-Dec-11 08:29 015 9.4
2018-Dec-11 08:24 038 9.4
2018-Dec-11 08:19 054 0 gusting 1 9.4
2018-Dec-11 08:14 064 9.4
2018-Dec-11 08:09 060 0 gusting 0 8.9
2018-Dec-11 08:04 8.9
2018-Dec-11 07:59 8.9
2018-Dec-11 07:54 8.9
2018-Dec-11 07:49 8.9
2018-Dec-11 07:44 078 8.9
2018-Dec-11 07:40 078 8.9
2018-Dec-11 07:35 8.9
2018-Dec-11 07:30 8.9
2018-Dec-11 07:25 082 9.4
2018-Dec-11 07:20 9.4
2018-Dec-11 07:15 9.4
2018-Dec-11 07:10 9.4
2018-Dec-11 07:05 9.4
2018-Dec-11 07:00 083 9.4
2018-Dec-11 06:55 083 0 gusting 1 10.0
2018-Dec-11 06:50 083 10.0
2018-Dec-11 06:45 083 10.0
2018-Dec-11 06:40 083 10.0
2018-Dec-11 06:35 083 10.0
2018-Dec-11 06:30 083 0 gusting 1 10.0
2018-Dec-11 06:25 083 10.0
2018-Dec-11 06:20 084 10.0
2018-Dec-11 06:13 10.0
2018-Dec-11 06:08 081 10.6
2018-Dec-11 06:03 079 10.6
2018-Dec-11 05:58 080 0 gusting 1 10.6
2018-Dec-11 05:53 086 1 gusting 1 10.6
2018-Dec-11 05:48 080 0 gusting 1 10.6
2018-Dec-11 05:43 076 0 gusting 0 10.6
2018-Dec-11 05:38 078 0 gusting 1 10.6
2018-Dec-11 05:33 081 1 gusting 2 10.6
2018-Dec-11 05:28 075 0 gusting 1 10.6
2018-Dec-11 05:23 055 10.6
2018-Dec-11 05:18 053 1 gusting 1 10.6
2018-Dec-11 05:13 10.6
2018-Dec-11 05:08 055 10.6
2018-Dec-11 05:03 056 0 gusting 1 10.6
2018-Dec-11 04:58 035 10.6
2018-Dec-11 04:53 011 10.6
2018-Dec-11 04:48 010 10.6
2018-Dec-11 04:43 10.6
2018-Dec-11 04:38 009 10.6
2018-Dec-11 04:33 007 0 gusting 1 10.6
2018-Dec-11 04:28 053 10.6
2018-Dec-11 04:24 007 1 gusting 2 10.6
2018-Dec-11 04:19 033 0 gusting 0 10.6
2018-Dec-11 04:14 045 1 gusting 1 10.6
2018-Dec-11 04:09 052 10.6
2018-Dec-11 04:04 056 10.6
2018-Dec-11 03:59 059 1 gusting 2 10.6
2018-Dec-11 03:54 057 10.6
2018-Dec-11 03:49 058 10.6
2018-Dec-11 03:44 053 1 gusting 1 11.1
2018-Dec-11 03:39 009 1 gusting 2 11.1
2018-Dec-11 03:34 002 0 gusting 1 11.1
2018-Dec-11 03:29 055 0 gusting 0 11.1
2018-Dec-11 03:24 012 2 gusting 4 11.1
2018-Dec-11 03:19 049 1 gusting 1 11.1
2018-Dec-11 03:14 057 1 gusting 2 11.1
2018-Dec-11 03:09 009 11.1
2018-Dec-11 03:04 024 1 gusting 2 11.1
2018-Dec-11 02:59 058 11.1
2018-Dec-11 02:54 028 0 gusting 1 11.1
2018-Dec-11 02:49 009 11.1
2018-Dec-11 02:44 028 0 gusting 1 11.1
2018-Dec-11 02:39 074 0 gusting 0 11.1
2018-Dec-11 02:34 074 11.1
2018-Dec-11 02:29 098 1 gusting 2 11.1
2018-Dec-11 02:24 058 0 gusting 1 11.1
2018-Dec-11 02:17 050 1 gusting 3 11.1
2018-Dec-11 02:12 040 11.1
2018-Dec-11 02:04 053 1 gusting 2 11.1
2018-Dec-11 01:59 054 1 gusting 1 11.1
2018-Dec-11 01:54 061 11.1
2018-Dec-11 01:49 044 2 gusting 3 11.1
2018-Dec-11 01:44 008 0 gusting 1 11.1
2018-Dec-11 01:39 038 11.7
2018-Dec-11 01:34 002 1 gusting 2 11.7
2018-Dec-11 01:29 027 0 gusting 1 11.7
2018-Dec-11 01:24 008 1 gusting 2 11.7
2018-Dec-11 01:19 052 11.7
2018-Dec-11 01:14 048 2 gusting 3 11.7
2018-Dec-11 01:09 033 1 gusting 2 11.7
2018-Dec-11 01:04 061 0 gusting 1 12.2
2018-Dec-11 00:59 035 12.2
2018-Dec-11 00:54 025 12.2
2018-Dec-11 00:49 12.2
2018-Dec-11 00:44 062 0 gusting 1 12.2
2018-Dec-11 00:39 12.2
2018-Dec-11 00:31 359 2 gusting 3 12.2
2018-Dec-11 00:26 001 0 gusting 1 12.2
2018-Dec-11 00:21 12.2
2018-Dec-11 00:16 008 1 gusting 3 12.2
2018-Dec-11 00:11 358 2 gusting 4 12.2
2018-Dec-11 00:06 006 12.8
2018-Dec-11 00:01 009 1 gusting 1 12.8
2018-Dec-10 23:56 007 12.8
2018-Dec-10 23:51 003 1 gusting 1 12.8
2018-Dec-10 23:46 007 1 gusting 3 12.8
2018-Dec-10 23:41 358 1 gusting 3 12.8
2018-Dec-10 23:36 007 1 gusting 2 12.8
2018-Dec-10 23:31 12.8
2018-Dec-10 23:26 002 13.3
2018-Dec-10 23:21 009 13.3
2018-Dec-10 23:14 357 3 gusting 3 13.3
2018-Dec-10 23:09 355 1 gusting 2 13.3
2018-Dec-10 23:04 359 4 gusting 4 13.3
2018-Dec-10 22:59 357 1 gusting 2 13.3
2018-Dec-10 22:54 003 2 gusting 4 13.9
2018-Dec-10 22:49 343 0 gusting 1 13.9
2018-Dec-10 22:44 351 0 gusting 0 13.9
2018-Dec-10 22:39 354 13.9
2018-Dec-10 22:34 334 1 gusting 1 14.4
2018-Dec-10 22:29 315 1 gusting 3 14.4
2018-Dec-10 22:24 333 1 gusting 2 14.4
2018-Dec-10 22:19 348 0 gusting 1 14.4
2018-Dec-10 22:14 001 1 gusting 3 15.0
2018-Dec-10 22:09 328 1 gusting 2 15.0
2018-Dec-10 22:04 324 2 gusting 3 15.0
2018-Dec-10 21:59 348 0 gusting 1 15.0
2018-Dec-10 21:54 355 1 gusting 2 15.0
2018-Dec-10 21:49 338 1 gusting 2 15.0
2018-Dec-10 21:44 317 2 gusting 3 15.0
2018-Dec-10 21:39 323 3 gusting 4 15.0
2018-Dec-10 21:34 313 3 gusting 4 15.0
2018-Dec-10 21:29 002 1 gusting 3 15.0
2018-Dec-10 21:24 339 1 gusting 1 15.6
2018-Dec-10 21:19 324 1 gusting 2 15.6
2018-Dec-10 21:14 314 3 gusting 4 15.6
2018-Dec-10 21:10 329 1 gusting 2 15.6
2018-Dec-10 21:05 307 3 gusting 4 16.1
2018-Dec-10 21:00 328 2 gusting 4 16.1
2018-Dec-10 20:55 359 1 gusting 2 16.1
2018-Dec-10 20:50 333 3 gusting 3 16.1
2018-Dec-10 20:45 324 3 gusting 4 16.7
2018-Dec-10 20:40 310 3 gusting 4 16.7
2018-Dec-10 20:35 309 2 gusting 3 16.7
2018-Dec-10 20:30 324 4 gusting 5 16.7
2018-Dec-10 20:25 321 3 gusting 4 16.7
2018-Dec-10 20:20 318 3 gusting 4 16.7
2018-Dec-10 20:15 323 3 gusting 5 16.7
2018-Dec-10 20:10 329 3 gusting 4 16.7
2018-Dec-10 20:05 315 4 gusting 5 16.7
2018-Dec-10 20:00 329 1 gusting 2 16.7
2018-Dec-10 19:55 324 4 gusting 5 17.2
2018-Dec-10 19:45 336 1 gusting 2 16.7
2018-Dec-10 19:40 001 2 gusting 3 16.7
2018-Dec-10 19:35 354 4 gusting 5 16.7
2018-Dec-10 19:30 313 3 gusting 3 16.7
2018-Dec-10 19:25 343 1 gusting 2 16.1
2018-Dec-10 19:20 002 4 gusting 6 16.1
2018-Dec-10 19:15 342 2 gusting 3 16.1
2018-Dec-10 19:10 351 5 gusting 6 16.1
2018-Dec-10 19:04 319 3 gusting 4 16.1
2018-Dec-10 18:59 344 2 gusting 2 16.1
2018-Dec-10 18:54 355 0 gusting 1 16.1
2018-Dec-10 18:49 002 2 gusting 4 16.1
2018-Dec-10 18:44 342 6 gusting 9 16.1
2018-Dec-10 18:39 344 2 gusting 2 16.7
2018-Dec-10 18:28 004 7 gusting 10 16.7
2018-Dec-10 18:23 355 3 gusting 4 16.7
2018-Dec-10 18:18 324 2 gusting 3 16.7
2018-Dec-10 18:13 309 5 gusting 5 17.2
2018-Dec-10 18:08 349 5 gusting 8 17.2
2018-Dec-10 18:03 327 2 gusting 3 17.2
2018-Dec-10 17:58 308 2 gusting 3 17.2
2018-Dec-10 17:53 308 3 gusting 5 17.2
2018-Dec-10 17:49 331 3 gusting 6 17.2
2018-Dec-10 17:44 327 3 gusting 5 17.2
2018-Dec-10 17:39 353 2 gusting 3 17.2
2018-Dec-10 17:34 299 3 gusting 4 17.2
2018-Dec-10 17:29 289 3 gusting 4 17.8
2018-Dec-10 17:24 341 1 gusting 1 17.8
2018-Dec-10 17:19 329 2 gusting 3 17.8
2018-Dec-10 17:14 317 2 gusting 2 17.8
2018-Dec-10 17:09 329 3 gusting 4 17.8
2018-Dec-10 17:04 347 4 gusting 6 17.8
2018-Dec-10 16:59 315 3 gusting 3 17.2
2018-Dec-10 16:54 351 3 gusting 4 17.2
2018-Dec-10 16:49 354 2 gusting 4 17.2
2018-Dec-10 16:44 17.2
2018-Dec-10 16:39 333 1 gusting 2 17.2
2018-Dec-10 16:34 349 6 gusting 7 17.2
2018-Dec-10 16:29 344 3 gusting 6 17.2
2018-Dec-10 16:24 002 1 gusting 2 17.2
2018-Dec-10 16:19 345 1 gusting 1 17.2
2018-Dec-10 16:11 353 2 gusting 3 17.2
2018-Dec-10 16:06 354 3 gusting 4 17.2
2018-Dec-10 16:01 357 4 gusting 6 17.2
2018-Dec-10 15:56 340 1 gusting 2 17.2
2018-Dec-10 15:51 312 1 gusting 4 16.7
2018-Dec-10 15:46 329 1 gusting 2 16.7
2018-Dec-10 15:41 314 1 gusting 2 16.1
2018-Dec-10 15:36 345 2 gusting 4 16.1
2018-Dec-10 15:31 346 1 gusting 1 16.1
2018-Dec-10 15:26 329 1 gusting 2 16.1
2018-Dec-10 15:21 337 1 gusting 2 16.1
2018-Dec-10 15:16 351 1 gusting 2 16.1
2018-Dec-10 15:11 354 0 gusting 3 16.1
2018-Dec-10 15:06 356 1 gusting 2 16.7
2018-Dec-10 15:01 341 0 gusting 2 16.7
2018-Dec-10 14:55 346 1 gusting 2 16.7
2018-Dec-10 14:50 317 1 gusting 3 16.7
2018-Dec-10 14:44 353 0 gusting 2 16.1
2018-Dec-10 14:39 329 2 gusting 4 16.1
2018-Dec-10 14:34 013 2 gusting 4 16.1
2018-Dec-10 14:29 348 2 gusting 5 16.1
2018-Dec-10 14:21 341 1 gusting 1 16.1
2018-Dec-10 14:16 003 6 gusting 7 16.1
2018-Dec-10 14:11 356 3 gusting 4 16.1
2018-Dec-10 14:06 002 1 gusting 2 16.1
2018-Dec-10 14:01 008 1 gusting 3 16.1
2018-Dec-10 13:57 007 1 gusting 2 16.1
2018-Dec-10 13:50 323 2 gusting 3 16.1
2018-Dec-10 13:45 348 1 gusting 2 16.1
2018-Dec-10 13:40 356 0 gusting 1 15.6
2018-Dec-10 13:35 352 1 gusting 3 15.6
2018-Dec-10 13:29 008 3 gusting 3 15.6
2018-Dec-10 13:24 358 1 gusting 4 15.6
2018-Dec-10 13:19 354 3 gusting 5 15.0
2018-Dec-10 13:14 016 2 gusting 3 15.0
2018-Dec-10 13:09 002 1 gusting 1 15.0
2018-Dec-10 13:04 357 0 gusting 1 15.0
2018-Dec-10 12:59 002 1 gusting 2 15.0
2018-Dec-10 12:54 009 1 gusting 2 15.0
2018-Dec-10 12:49 006 3 gusting 4 15.0
2018-Dec-10 12:44 354 2 gusting 3 15.0
2018-Dec-10 12:40 004 1 gusting 2 15.0
2018-Dec-10 12:35 353 2 gusting 3 15.0
2018-Dec-10 12:30 003 15.0
2018-Dec-10 12:25 358 15.0
2018-Dec-10 12:20 348 1 gusting 2 15.0
2018-Dec-10 12:15 334 1 gusting 2 15.0
2018-Dec-10 12:10 009 2 gusting 3 15.0
2018-Dec-10 12:05 332 1 gusting 2 15.0
2018-Dec-10 12:00 15.0
2018-Dec-10 11:55 004 1 gusting 2 15.0
2018-Dec-10 11:50 359 2 gusting 3 15.0
2018-Dec-10 11:45 007 0 gusting 1 15.0
2018-Dec-10 11:40 358 1 gusting 2 15.0
2018-Dec-10 11:35 15.0
2018-Dec-10 11:30 354 1 gusting 3 15.0
2018-Dec-10 11:25 010 1 gusting 2 15.6
2018-Dec-10 11:20 005 2 gusting 2 15.6
2018-Dec-10 11:15 345 0 gusting 1 15.6
2018-Dec-10 11:10 356 0 gusting 4 15.6
2018-Dec-10 11:05 001 2 gusting 3 15.6
2018-Dec-10 10:55 005 2 gusting 4 15.6
2018-Dec-10 10:50 15.6
2018-Dec-10 10:45 001 0 gusting 2 15.6
2018-Dec-10 10:40 001 1 gusting 3 15.6
2018-Dec-10 10:35 340 0 gusting 1 15.6
2018-Dec-10 10:27 343 1 gusting 1 15.6
2018-Dec-10 10:22 340 1 gusting 2 15.6
2018-Dec-10 10:17 340 1 gusting 2 15.6
2018-Dec-10 10:12 352 2 gusting 3 15.6
2018-Dec-10 10:07 356 0 gusting 1 15.6
2018-Dec-10 10:02 349 2 gusting 5 16.1
2018-Dec-10 09:57 357 1 gusting 2 16.1
2018-Dec-10 09:52 332 1 gusting 2 16.1
2018-Dec-10 09:47 347 3 gusting 4 16.1
2018-Dec-10 09:42 339 1 gusting 2 16.1
2018-Dec-10 09:37 320 5 gusting 7 16.7
2018-Dec-10 09:32 340 2 gusting 3 16.7
2018-Dec-10 09:27 349 2 gusting 3 17.2
2018-Dec-10 09:22 310 2 gusting 3 17.2
2018-Dec-10 09:17 326 3 gusting 5 17.2
2018-Dec-10 09:12 307 3 gusting 3 17.2
2018-Dec-10 09:07 318 8 gusting 13 17.2
2018-Dec-10 09:02 006 5 gusting 6 17.2
2018-Dec-10 08:57 320 3 gusting 4 17.2
2018-Dec-10 08:52 316 1 gusting 2 17.2
2018-Dec-10 08:47 307 1 gusting 2 17.8
2018-Dec-10 08:42 313 4 gusting 5 17.8
2018-Dec-10 08:37 322 5 gusting 6 17.8
2018-Dec-10 08:32 268 10 gusting 13 17.8
2018-Dec-10 08:27 302 2 gusting 3 17.8
2018-Dec-10 08:24 316 2 gusting 3 17.8
2018-Dec-10 08:19 324 3 gusting 4 17.8
2018-Dec-10 08:14 314 3 gusting 4 17.8
2018-Dec-10 08:09 298 4 gusting 5 17.8
2018-Dec-10 08:04 311 2 gusting 3 17.8
2018-Dec-10 07:59 293 3 gusting 5 17.8
2018-Dec-10 07:54 308 3 gusting 4 18.3
2018-Dec-10 07:49 302 4 gusting 6 18.3
2018-Dec-10 07:44 324 2 gusting 2 18.3
2018-Dec-10 07:39 319 2 gusting 2 18.3
2018-Dec-10 07:34 308 3 gusting 5 18.3
2018-Dec-10 07:29 297 2 gusting 3 18.3
2018-Dec-10 07:24 288 4 gusting 5 18.3
2018-Dec-10 07:19 281 4 gusting 4 18.9
2018-Dec-10 07:14 315 2 gusting 3 18.9
2018-Dec-10 07:09 320 1 gusting 3 18.9
2018-Dec-10 07:04 315 3 gusting 5 18.9
2018-Dec-10 06:59 323 4 gusting 5 18.9
2018-Dec-10 06:54 335 5 gusting 5 18.9
2018-Dec-10 06:49 285 2 gusting 4 18.9
2018-Dec-10 06:44 317 1 gusting 2 18.9
2018-Dec-10 06:39 327 2 gusting 3 18.9
2018-Dec-10 06:34 297 3 gusting 3 18.9
2018-Dec-10 06:29 294 3 gusting 4 18.9
2018-Dec-10 06:24 301 4 gusting 6 18.9
2018-Dec-10 06:19 284 4 gusting 5 18.9
2018-Dec-10 06:11 321 3 gusting 4 18.9
2018-Dec-10 06:06 311 2 gusting 3 18.9
2018-Dec-10 06:01 306 2 gusting 5 18.9
2018-Dec-10 05:56 320 1 gusting 2 18.9
2018-Dec-10 05:51 313 3 gusting 3 18.9
2018-Dec-10 05:46 255 4 gusting 6 18.9
2018-Dec-10 05:41 321 1 gusting 2 18.9
2018-Dec-10 05:36 293 3 gusting 5 18.9
2018-Dec-10 05:31 334 1 gusting 2 18.9
2018-Dec-10 05:26 314 4 gusting 5 18.9
2018-Dec-10 05:20 300 2 gusting 3 18.9
2018-Dec-10 05:15 290 1 gusting 2 18.9
2018-Dec-10 05:10 302 0 gusting 1 18.9
2018-Dec-10 05:05 290 0 gusting 1 19.4
2018-Dec-10 05:00 305 1 gusting 2 19.4
2018-Dec-10 04:55 306 2 gusting 3 19.4
2018-Dec-10 04:50 301 3 gusting 4 19.4
2018-Dec-10 04:44 300 2 gusting 3 19.4
2018-Dec-10 04:39 255 5 gusting 6 19.4
2018-Dec-10 04:34 293 4 gusting 5 19.4
2018-Dec-10 04:29 304 1 gusting 2 19.4
2018-Dec-10 04:24 295 2 gusting 2 19.4
2018-Dec-10 04:19 314 1 gusting 2 19.4
2018-Dec-10 04:14 294 3 gusting 3 19.4
2018-Dec-10 04:09 301 1 gusting 2 19.4
2018-Dec-10 04:04 311 6 gusting 8 19.4
2018-Dec-10 03:59 257 1 gusting 2 19.4
2018-Dec-10 03:54 300 2 gusting 4 19.4
2018-Dec-10 03:49 268 1 gusting 2 19.4
2018-Dec-10 03:44 283 1 gusting 2 19.4
2018-Dec-10 03:39 306 2 gusting 4 19.4
2018-Dec-10 03:34 271 3 gusting 4 19.4
2018-Dec-10 03:29 280 1 gusting 3 19.4
2018-Dec-10 03:24 291 1 gusting 3 19.4
2018-Dec-10 03:19 299 3 gusting 3 19.4
2018-Dec-10 03:14 268 2 gusting 2 19.4
2018-Dec-10 03:09 305 1 gusting 2 19.4
2018-Dec-10 03:04 301 1 gusting 2 19.4